Balmoral — GRPM — position and weather

sailwx.info

Track history (hours):
 
Tides and Currents Weather Stations Pressure Air Temp Water Temp Dewpoint Dewpoint Depression Visibility Wind Speed Wind Dir Waves Ship Positions

Balmoral

Operator: Waverly Excursions Ltd

Last reported at 2018-Jul-21 19:49 UTC. Time now 2018-Jul-22 03:21 UTC.
Position N 55°52' W 004°19'.

Length 73 m; draft 2 m.

Type: Ship. MMSI: 232001540.

Date/timePositionNaut miles runAvg speedWind from/ knotsBaromVisibWave heightAir tempDewpointWater temp
2018-Jul-21 19:49N 55°52' W 004°19'310.8
2018-Jul-21 19:30N 55°54' W 004°24'713.7
2018-Jul-21 19:00N 55°56' W 004°36'510.6
2018-Jul-21 18:30N 55°57' W 004°45'3 4.7
2018-Jul-21 17:54N 55°60' W 004°45'513.4
2018-Jul-21 17:30N 55°57' W 004°53'2 3.2
2018-Jul-21 17:00N 55°56' W 004°55'713.0
2018-Jul-21 16:30N 55°51' W 005°02'1 1.7
2018-Jul-21 16:00N 55°50' W 005°03'4 7.4
2018-Jul-21 15:29N 55°54' W 005°06'0 0.2
2018-Jul-21 13:42N 55°54' W 005°07'313.4
2018-Jul-21 13:30N 55°52' W 005°04'2 3.5
2018-Jul-21 13:00N 55°50' W 005°03'510.8
2018-Jul-21 12:30N 55°54' W 004°56'3 5.9
2018-Jul-21 12:00N 55°57' W 004°55'612.7
2018-Jul-21 11:30N 55°60' W 004°45'0 0.6
2018-Jul-21 11:00N 55°60' W 004°45'3 5.4
2018-Jul-21 10:30N 55°57' W 004°45'511.0
2018-Jul-21 10:00N 55°56' W 004°35'713.7
2018-Jul-21 09:30N 55°53' W 004°24'2 0.2
2018-Jul-20 21:47N 55°52' W 004°20'3 9.1
2018-Jul-20 21:30N 55°54' W 004°24'612.0
2018-Jul-20 21:00N 55°56' W 004°34'612.7
2018-Jul-20 20:30N 55°57' W 004°45'0 0.4
2018-Jul-20 20:00N 55°57' W 004°45'714.3
2018-Jul-20 19:30N 55°56' W 004°33'713.2
2018-Jul-20 19:00N 55°53' W 004°22'2 1.0
2018-Jul-20 16:41N 55°52' W 004°19'210.0
2018-Jul-20 16:30N 55°53' W 004°22'612.4
2018-Jul-20 16:00N 55°56' W 004°31'814.4
2018-Jul-20 15:28N 55°57' W 004°45'3 7.0
2018-Jul-20 15:00N 55°59' W 004°49'4 7.8
2018-Jul-20 14:29N 55°57' W 004°55'2 4.6
2018-Jul-20 14:00N 55°55' W 004°56'611.4
2018-Jul-20 13:30N 55°51' W 005°03'0 0.2
2018-Jul-20 12:40N 55°50' W 005°03'0 0.0
2018-Jul-20 12:22N 55°50' W 005°03'410.2
2018-Jul-20 12:01N 55°52' W 004°58'5 9.2
2018-Jul-20 11:29N 55°57' W 004°55'4 8.2
2018-Jul-20 11:00N 55°59' W 004°49'2 0.1
2018-Jul-19 18:36N 55°57' W 004°52'114.5
2018-Jul-19 18:30N 55°56' W 004°54'714.5
2018-Jul-19 18:00N 55°49' W 004°54'3 6.4
2018-Jul-19 17:30N 55°46' W 004°53'5 9.1
2018-Jul-19 16:57N 55°41' W 004°58'9 9.0
2018-Jul-19 15:58N 55°35' W 005°08'2 4.7
2018-Jul-19 15:29N 55°33' W 005°05'2 2.6
2018-Jul-19 14:49N 55°35' W 005°07'1 2.2
2018-Jul-19 14:28N 55°35' W 005°08'16 0.8
2018-Jul-18 18:07N 55°48' W 004°52'111.4
2018-Jul-18 18:01N 55°48' W 004°54'611.2
2018-Jul-18 17:30N 55°50' W 005°03'4 7.6
2018-Jul-18 17:00N 55°54' W 005°06'5 5.0
2018-Jul-18 16:05N 55°50' W 005°11'112.9
2018-Jul-18 16:01N 55°49' W 005°12'7 8.8
2018-Jul-18 15:13N 55°52' W 005°23'2 1.3
2018-Jul-18 13:43N 55°51' W 005°20'414.3
2018-Jul-18 13:27N 55°49' W 005°14'6 5.8
2018-Jul-18 12:24N 55°54' W 005°08'411.2
2018-Jul-18 12:00N 55°51' W 005°03'3 5.8
2018-Jul-18 11:31N 55°50' W 004°58'4 1.1
2018-Jul-18 07:49N 55°48' W 004°52'0 0.0
2018-Jul-18 07:28N 55°48' W 004°52'0 0.0
2018-Jul-18 07:00N 55°48' W 004°52'0 0.0
2018-Jul-18 06:30N 55°48' W 004°52'0 0.0
2018-Jul-18 05:30N 55°48' W 004°52'0 0.0
2018-Jul-18 01:48N 55°48' W 004°52'0 0.0
2018-Jul-18 01:30N 55°48' W 004°52'0 0.0
2018-Jul-18 00:07N 55°48' W 004°52'0 0.0
2018-Jul-17 23:45N 55°48' W 004°52'0 0.0
2018-Jul-17 23:26N 55°48' W 004°52'0 0.0
2018-Jul-17 22:17N 55°48' W 004°52'0 0.0
2018-Jul-17 21:25N 55°48' W 004°52'0 0.0
2018-Jul-17 20:41N 55°48' W 004°52'0 0.0
2018-Jul-17 20:24N 55°48' W 004°52'0 0.0
2018-Jul-17 18:04N 55°48' W 004°52'0 0.0
2018-Jul-17 17:18N 55°48' W 004°52'0 0.0
2018-Jul-17 15:58N 55°48' W 004°52'613.1
2018-Jul-17 15:30N 55°54' W 004°55'3 6.2
2018-Jul-17 15:00N 55°57' W 004°55'4 8.1
2018-Jul-17 14:30N 56°01' W 004°53'3 4.1
2018-Jul-17 13:45N 56°04' W 004°53'313.7
2018-Jul-17 13:31N 56°01' W 004°53'4 7.8
2018-Jul-17 13:00N 55°57' W 004°55'1 1.4
2018-Jul-17 12:30N 55°56' W 004°55'714.8
2018-Jul-17 12:01N 55°49' W 004°54'2 3.1
2018-Jul-17 11:31N 55°50' W 004°54'713.8
2018-Jul-17 11:01N 55°57' W 004°52'611.3
2018-Jul-17 10:30N 55°57' W 004°42'611.9
2018-Jul-17 10:00N 55°56' W 004°32'611.3
2018-Jul-17 09:30N 55°53' W 004°23'3 2.7
2018-Jul-17 08:20N 55°52' W 004°18'1 0.1
2018-Jul-16 20:11N 55°52' W 004°20'2 9.5
2018-Jul-16 20:00N 55°53' W 004°23'511.1
2018-Jul-16 19:30N 55°56' W 004°31'612.3
2018-Jul-16 19:00N 55°56' W 004°42'4 7.3
2018-Jul-16 18:27N 55°58' W 004°49'613.3
2018-Jul-16 18:00N 55°54' W 004°56'510.8
2018-Jul-16 17:30N 55°50' W 005°03'3 6.4
2018-Jul-16 17:00N 55°50' W 004°58'4 7.8
2018-Jul-16 16:30N 55°47' W 004°53'4 7.5
2018-Jul-16 16:01N 55°44' W 004°57'714.3
2018-Jul-16 15:30N 55°43' W 005°10'3 2.1
2018-Jul-16 14:04N 55°43' W 005°05'214.0
2018-Jul-16 13:56N 55°43' W 005°01'5 8.0
2018-Jul-16 13:17N 55°46' W 004°53'2 5.4
2018-Jul-16 12:56N 55°48' W 004°52'613.2
2018-Jul-16 12:30N 55°51' W 005°01'1 1.5
2018-Jul-16 12:00N 55°51' W 005°02'612.0
2018-Jul-16 11:30N 55°55' W 004°56'611.5
2018-Jul-16 11:00N 55°58' W 004°46'3 6.7
2018-Jul-16 10:30N 55°56' W 004°40'611.5
2018-Jul-16 10:00N 55°56' W 004°30'510.3
2018-Jul-16 09:30N 55°53' W 004°23'2 0.1
2018-Jul-15 21:08N 55°52' W 004°20'110.9
2018-Jul-15 21:00N 55°53' W 004°22'612.2
2018-Jul-15 20:30N 55°56' W 004°32'713.3
2018-Jul-15 20:00N 55°57' W 004°43'4 7.5
2018-Jul-15 19:28N 55°58' W 004°50'714.5
2018-Jul-15 19:01N 55°52' W 004°54'4 7.5
2018-Jul-15 18:30N 55°48' W 004°53'713.0
2018-Jul-15 18:00N 55°51' W 005°03'3 5.1
2018-Jul-15 17:30N 55°49' W 005°00'612.1
2018-Jul-15 17:00N 55°43' W 005°04'10 2.8
2018-Jul-15 13:20N 55°53' W 005°05'3 8.5
2018-Jul-15 13:00N 55°50' W 005°03'3 6.7
2018-Jul-15 12:31N 55°50' W 004°57'3 5.3
2018-Jul-15 12:00N 55°48' W 004°53'713.1
2018-Jul-15 11:30N 55°55' W 004°54'510.6
2018-Jul-15 11:00N 55°57' W 004°45'4 7.4
2018-Jul-15 10:31N 55°56' W 004°39'612.4
2018-Jul-15 10:00N 55°55' W 004°28'5 9.9
2018-Jul-15 09:29N 55°52' W 004°21'1 0.1
2018-Jul-14 19:45N 55°52' W 004°19'2 8.5
2018-Jul-14 19:29N 55°53' W 004°22'511.0
2018-Jul-14 19:00N 55°56' W 004°30'611.8
2018-Jul-14 18:30N 55°56' W 004°41'3 5.4
2018-Jul-14 18:00N 55°57' W 004°45'611.1
2018-Jul-14 17:30N 55°57' W 004°55'2 4.5
2018-Jul-14 17:00N 55°55' W 004°56'611.3
2018-Jul-14 16:30N 55°51' W 005°03'0 0.5
2018-Jul-14 16:01N 55°51' W 005°03'2 0.9
2018-Jul-14 13:43N 55°53' W 005°04'210.6
2018-Jul-14 13:31N 55°51' W 005°03'1 2.9
2018-Jul-14 13:00N 55°51' W 005°01'612.6
2018-Jul-14 12:30N 55°56' W 004°55'3 6.0
2018-Jul-14 12:00N 55°58' W 004°51'3 4.4
2018-Jul-14 11:18N 55°58' W 004°45'1 5.1
2018-Jul-14 11:01N 55°57' W 004°45'611.0
2018-Jul-14 10:31N 55°56' W 004°35'612.5
2018-Jul-14 10:00N 55°54' W 004°25'5 8.3
2018-Jul-14 09:27N 55°52' W 004°18'1 0.1
2018-Jul-13 16:43N 55°52' W 004°19'210.5
2018-Jul-13 16:30N 55°53' W 004°23'611.2
2018-Jul-13 16:00N 55°56' W 004°32'611.6
2018-Jul-13 15:30N 55°56' W 004°42'5 9.0
2018-Jul-13 14:59N 55°59' W 004°49'4 9.3
2018-Jul-13 14:31N 55°56' W 004°55'7 7.2
2018-Jul-13 13:31N 55°51' W 005°03'0 0.7
2018-Jul-13 13:00N 55°50' W 005°03'0 0.0
2018-Jul-13 12:30N 55°50' W 005°03'5 9.2
2018-Jul-13 12:00N 55°53' W 004°57'4 7.7
2018-Jul-13 11:31N 55°57' W 004°55'4 6.6
2018-Jul-13 10:58N 55°59' W 004°50'610.8
2018-Jul-13 10:25N 55°56' W 004°40'513.3
2018-Jul-13 10:00N 55°56' W 004°31'611.0
2018-Jul-13 09:30N 55°53' W 004°22'1 0.1
2018-Jul-12 21:58N 55°52' W 004°21'510.9
2018-Jul-12 21:30N 55°55' W 004°28'713.9
2018-Jul-12 20:58N 55°56' W 004°41'3 6.7
2018-Jul-12 20:30N 55°58' W 004°46'1 2.2
2018-Jul-12 19:55N 55°59' W 004°46'613.7
2018-Jul-12 19:29N 55°57' W 004°55'2 4.4
2018-Jul-12 19:00N 55°55' W 004°56'611.6
2018-Jul-12 18:30N 55°51' W 005°03'3 6.0
2018-Jul-12 18:00N 55°50' W 004°58'4 0.8
2018-Jul-12 12:46N 55°48' W 004°52'313.6
2018-Jul-12 12:31N 55°50' W 004°58'3 6.5
2018-Jul-12 12:00N 55°50' W 005°03'612.6
2018-Jul-12 11:30N 55°55' W 004°56'4 8.3
2018-Jul-12 11:00N 55°58' W 004°51'3 0.4
2018-Jul-12 02:49N 55°57' W 004°45'0 0.0
2018-Jul-12 02:30N 55°57' W 004°45'0 0.0
2018-Jul-12 02:01N 55°57' W 004°45'0 0.0
2018-Jul-12 01:31N 55°57' W 004°45'0 0.0
2018-Jul-12 00:54N 55°57' W 004°45'0 0.0
2018-Jul-12 00:31N 55°57' W 004°45'0 0.0
2018-Jul-12 00:00N 55°57' W 004°45'0 0.0
2018-Jul-11 23:31N 55°57' W 004°45'0 0.0
2018-Jul-11 23:01N 55°57' W 004°45'0 0.0
2018-Jul-11 22:31N 55°57' W 004°45'0 0.0
2018-Jul-11 22:00N 55°57' W 004°45'0 0.0
2018-Jul-11 21:31N 55°57' W 004°45'0 0.0
2018-Jul-11 21:01N 55°57' W 004°45'0 0.0
2018-Jul-11 20:30N 55°57' W 004°45'0 0.0
2018-Jul-11 20:00N 55°57' W 004°45'  
Track history (hours):
 
Tides and Currents Weather Stations Pressure Air Temp Water Temp Dewpoint Dewpoint Depression Visibility Wind Speed Wind Dir Waves Ship Positions

Balmoral

Operator: Waverly Excursions Ltd

Last reported at 2018-Jul-21 19:49 UTC. Time now 2018-Jul-22 03:21 UTC.
Position N 55°52' W 004°19'.

Length 73 m; draft 2 m.

Type: Ship. MMSI: 232001540.

Date/timePositionNaut miles runAvg speedWind from/ knotsBaromVisibWave heightAir tempDewpointWater temp
2018-Jul-21 19:49N 55°52' W 004°19'310.8
2018-Jul-21 19:30N 55°54' W 004°24'713.7
2018-Jul-21 19:00N 55°56' W 004°36'510.6
2018-Jul-21 18:30N 55°57' W 004°45'3 4.7
2018-Jul-21 17:54N 55°60' W 004°45'513.4
2018-Jul-21 17:30N 55°57' W 004°53'2 3.2
2018-Jul-21 17:00N 55°56' W 004°55'713.0
2018-Jul-21 16:30N 55°51' W 005°02'1 1.7
2018-Jul-21 16:00N 55°50' W 005°03'4 7.4
2018-Jul-21 15:29N 55°54' W 005°06'0 0.2
2018-Jul-21 13:42N 55°54' W 005°07'313.4
2018-Jul-21 13:30N 55°52' W 005°04'2 3.5
2018-Jul-21 13:00N 55°50' W 005°03'510.8
2018-Jul-21 12:30N 55°54' W 004°56'3 5.9
2018-Jul-21 12:00N 55°57' W 004°55'612.7
2018-Jul-21 11:30N 55°60' W 004°45'0 0.6
2018-Jul-21 11:00N 55°60' W 004°45'3 5.4
2018-Jul-21 10:30N 55°57' W 004°45'511.0
2018-Jul-21 10:00N 55°56' W 004°35'713.7
2018-Jul-21 09:30N 55°53' W 004°24'2 0.2
2018-Jul-20 21:47N 55°52' W 004°20'3 9.1
2018-Jul-20 21:30N 55°54' W 004°24'612.0
2018-Jul-20 21:00N 55°56' W 004°34'612.7
2018-Jul-20 20:30N 55°57' W 004°45'0 0.4
2018-Jul-20 20:00N 55°57' W 004°45'714.3
2018-Jul-20 19:30N 55°56' W 004°33'713.2
2018-Jul-20 19:00N 55°53' W 004°22'2 1.0
2018-Jul-20 16:41N 55°52' W 004°19'210.0
2018-Jul-20 16:30N 55°53' W 004°22'612.4
2018-Jul-20 16:00N 55°56' W 004°31'814.4
2018-Jul-20 15:28N 55°57' W 004°45'3 7.0
2018-Jul-20 15:00N 55°59' W 004°49'4 7.8
2018-Jul-20 14:29N 55°57' W 004°55'2 4.6
2018-Jul-20 14:00N 55°55' W 004°56'611.4
2018-Jul-20 13:30N 55°51' W 005°03'0 0.2
2018-Jul-20 12:40N 55°50' W 005°03'0 0.0
2018-Jul-20 12:22N 55°50' W 005°03'410.2
2018-Jul-20 12:01N 55°52' W 004°58'5 9.2
2018-Jul-20 11:29N 55°57' W 004°55'4 8.2
2018-Jul-20 11:00N 55°59' W 004°49'2 0.1
2018-Jul-19 18:36N 55°57' W 004°52'114.5
2018-Jul-19 18:30N 55°56' W 004°54'714.5
2018-Jul-19 18:00N 55°49' W 004°54'3 6.4
2018-Jul-19 17:30N 55°46' W 004°53'5 9.1
2018-Jul-19 16:57N 55°41' W 004°58'9 9.0
2018-Jul-19 15:58N 55°35' W 005°08'2 4.7
2018-Jul-19 15:29N 55°33' W 005°05'2 2.6
2018-Jul-19 14:49N 55°35' W 005°07'1 2.2
2018-Jul-19 14:28N 55°35' W 005°08'16 0.8
2018-Jul-18 18:07N 55°48' W 004°52'111.4
2018-Jul-18 18:01N 55°48' W 004°54'611.2
2018-Jul-18 17:30N 55°50' W 005°03'4 7.6
2018-Jul-18 17:00N 55°54' W 005°06'5 5.0
2018-Jul-18 16:05N 55°50' W 005°11'112.9
2018-Jul-18 16:01N 55°49' W 005°12'7 8.8
2018-Jul-18 15:13N 55°52' W 005°23'2 1.3
2018-Jul-18 13:43N 55°51' W 005°20'414.3
2018-Jul-18 13:27N 55°49' W 005°14'6 5.8
2018-Jul-18 12:24N 55°54' W 005°08'411.2
2018-Jul-18 12:00N 55°51' W 005°03'3 5.8
2018-Jul-18 11:31N 55°50' W 004°58'4 1.1
2018-Jul-18 07:49N 55°48' W 004°52'0 0.0
2018-Jul-18 07:28N 55°48' W 004°52'0 0.0
2018-Jul-18 07:00N 55°48' W 004°52'0 0.0
2018-Jul-18 06:30N 55°48' W 004°52'0 0.0
2018-Jul-18 05:30N 55°48' W 004°52'0 0.0
2018-Jul-18 01:48N 55°48' W 004°52'0 0.0
2018-Jul-18 01:30N 55°48' W 004°52'0 0.0
2018-Jul-18 00:07N 55°48' W 004°52'0 0.0
2018-Jul-17 23:45N 55°48' W 004°52'0 0.0
2018-Jul-17 23:26N 55°48' W 004°52'0 0.0
2018-Jul-17 22:17N 55°48' W 004°52'0 0.0
2018-Jul-17 21:25N 55°48' W 004°52'0 0.0
2018-Jul-17 20:41N 55°48' W 004°52'0 0.0
2018-Jul-17 20:24N 55°48' W 004°52'0 0.0
2018-Jul-17 18:04N 55°48' W 004°52'0 0.0
2018-Jul-17 17:18N 55°48' W 004°52'0 0.0
2018-Jul-17 15:58N 55°48' W 004°52'613.1
2018-Jul-17 15:30N 55°54' W 004°55'3 6.2
2018-Jul-17 15:00N 55°57' W 004°55'4 8.1
2018-Jul-17 14:30N 56°01' W 004°53'3 4.1
2018-Jul-17 13:45N 56°04' W 004°53'313.7
2018-Jul-17 13:31N 56°01' W 004°53'4 7.8
2018-Jul-17 13:00N 55°57' W 004°55'1 1.4
2018-Jul-17 12:30N 55°56' W 004°55'714.8
2018-Jul-17 12:01N 55°49' W 004°54'2 3.1
2018-Jul-17 11:31N 55°50' W 004°54'713.8
2018-Jul-17 11:01N 55°57' W 004°52'611.3
2018-Jul-17 10:30N 55°57' W 004°42'611.9
2018-Jul-17 10:00N 55°56' W 004°32'611.3
2018-Jul-17 09:30N 55°53' W 004°23'3 2.7
2018-Jul-17 08:20N 55°52' W 004°18'1 0.1
2018-Jul-16 20:11N 55°52' W 004°20'2 9.5
2018-Jul-16 20:00N 55°53' W 004°23'511.1
2018-Jul-16 19:30N 55°56' W 004°31'612.3
2018-Jul-16 19:00N 55°56' W 004°42'4 7.3
2018-Jul-16 18:27N 55°58' W 004°49'613.3
2018-Jul-16 18:00N 55°54' W 004°56'510.8
2018-Jul-16 17:30N 55°50' W 005°03'3 6.4
2018-Jul-16 17:00N 55°50' W 004°58'4 7.8
2018-Jul-16 16:30N 55°47' W 004°53'4 7.5
2018-Jul-16 16:01N 55°44' W 004°57'714.3
2018-Jul-16 15:30N 55°43' W 005°10'3 2.1
2018-Jul-16 14:04N 55°43' W 005°05'214.0
2018-Jul-16 13:56N 55°43' W 005°01'5 8.0
2018-Jul-16 13:17N 55°46' W 004°53'2 5.4
2018-Jul-16 12:56N 55°48' W 004°52'613.2
2018-Jul-16 12:30N 55°51' W 005°01'1 1.5
2018-Jul-16 12:00N 55°51' W 005°02'612.0
2018-Jul-16 11:30N 55°55' W 004°56'611.5
2018-Jul-16 11:00N 55°58' W 004°46'3 6.7
2018-Jul-16 10:30N 55°56' W 004°40'611.5
2018-Jul-16 10:00N 55°56' W 004°30'510.3
2018-Jul-16 09:30N 55°53' W 004°23'2 0.1
2018-Jul-15 21:08N 55°52' W 004°20'110.9
2018-Jul-15 21:00N 55°53' W 004°22'612.2
2018-Jul-15 20:30N 55°56' W 004°32'713.3
2018-Jul-15 20:00N 55°57' W 004°43'4 7.5
2018-Jul-15 19:28N 55°58' W 004°50'714.5
2018-Jul-15 19:01N 55°52' W 004°54'4 7.5
2018-Jul-15 18:30N 55°48' W 004°53'713.0
2018-Jul-15 18:00N 55°51' W 005°03'3 5.1
2018-Jul-15 17:30N 55°49' W 005°00'612.1
2018-Jul-15 17:00N 55°43' W 005°04'10 2.8
2018-Jul-15 13:20N 55°53' W 005°05'3 8.5
2018-Jul-15 13:00N 55°50' W 005°03'3 6.7
2018-Jul-15 12:31N 55°50' W 004°57'3 5.3
2018-Jul-15 12:00N 55°48' W 004°53'713.1
2018-Jul-15 11:30N 55°55' W 004°54'510.6
2018-Jul-15 11:00N 55°57' W 004°45'4 7.4
2018-Jul-15 10:31N 55°56' W 004°39'612.4
2018-Jul-15 10:00N 55°55' W 004°28'5 9.9
2018-Jul-15 09:29N 55°52' W 004°21'1 0.1
2018-Jul-14 19:45N 55°52' W 004°19'2 8.5
2018-Jul-14 19:29N 55°53' W 004°22'511.0
2018-Jul-14 19:00N 55°56' W 004°30'611.8
2018-Jul-14 18:30N 55°56' W 004°41'3 5.4
2018-Jul-14 18:00N 55°57' W 004°45'611.1
2018-Jul-14 17:30N 55°57' W 004°55'2 4.5
2018-Jul-14 17:00N 55°55' W 004°56'611.3
2018-Jul-14 16:30N 55°51' W 005°03'0 0.5
2018-Jul-14 16:01N 55°51' W 005°03'2 0.9
2018-Jul-14 13:43N 55°53' W 005°04'210.6
2018-Jul-14 13:31N 55°51' W 005°03'1 2.9
2018-Jul-14 13:00N 55°51' W 005°01'612.6
2018-Jul-14 12:30N 55°56' W 004°55'3 6.0
2018-Jul-14 12:00N 55°58' W 004°51'3 4.4
2018-Jul-14 11:18N 55°58' W 004°45'1 5.1
2018-Jul-14 11:01N 55°57' W 004°45'611.0
2018-Jul-14 10:31N 55°56' W 004°35'612.5
2018-Jul-14 10:00N 55°54' W 004°25'5 8.3
2018-Jul-14 09:27N 55°52' W 004°18'1 0.1
2018-Jul-13 16:43N 55°52' W 004°19'210.5
2018-Jul-13 16:30N 55°53' W 004°23'611.2
2018-Jul-13 16:00N 55°56' W 004°32'611.6
2018-Jul-13 15:30N 55°56' W 004°42'5 9.0
2018-Jul-13 14:59N 55°59' W 004°49'4 9.3
2018-Jul-13 14:31N 55°56' W 004°55'7 7.2
2018-Jul-13 13:31N 55°51' W 005°03'0 0.7
2018-Jul-13 13:00N 55°50' W 005°03'0 0.0
2018-Jul-13 12:30N 55°50' W 005°03'5 9.2
2018-Jul-13 12:00N 55°53' W 004°57'4 7.7
2018-Jul-13 11:31N 55°57' W 004°55'4 6.6
2018-Jul-13 10:58N 55°59' W 004°50'610.8
2018-Jul-13 10:25N 55°56' W 004°40'513.3
2018-Jul-13 10:00N 55°56' W 004°31'611.0
2018-Jul-13 09:30N 55°53' W 004°22'1 0.1
2018-Jul-12 21:58N 55°52' W 004°21'510.9
2018-Jul-12 21:30N 55°55' W 004°28'713.9
2018-Jul-12 20:58N 55°56' W 004°41'3 6.7
2018-Jul-12 20:30N 55°58' W 004°46'1 2.2
2018-Jul-12 19:55N 55°59' W 004°46'613.7
2018-Jul-12 19:29N 55°57' W 004°55'2 4.4
2018-Jul-12 19:00N 55°55' W 004°56'611.6
2018-Jul-12 18:30N 55°51' W 005°03'3 6.0
2018-Jul-12 18:00N 55°50' W 004°58'4 0.8
2018-Jul-12 12:46N 55°48' W 004°52'313.6
2018-Jul-12 12:31N 55°50' W 004°58'3 6.5
2018-Jul-12 12:00N 55°50' W 005°03'612.6
2018-Jul-12 11:30N 55°55' W 004°56'4 8.3
2018-Jul-12 11:00N 55°58' W 004°51'3 0.4
2018-Jul-12 02:49N 55°57' W 004°45'0 0.0
2018-Jul-12 02:30N 55°57' W 004°45'0 0.0
2018-Jul-12 02:01N 55°57' W 004°45'0 0.0
2018-Jul-12 01:31N 55°57' W 004°45'0 0.0
2018-Jul-12 00:54N 55°57' W 004°45'0 0.0
2018-Jul-12 00:31N 55°57' W 004°45'0 0.0
2018-Jul-12 00:00N 55°57' W 004°45'0 0.0
2018-Jul-11 23:31N 55°57' W 004°45'0 0.0
2018-Jul-11 23:01N 55°57' W 004°45'0 0.0
2018-Jul-11 22:31N 55°57' W 004°45'0 0.0
2018-Jul-11 22:00N 55°57' W 004°45'0 0.0
2018-Jul-11 21:31N 55°57' W 004°45'0 0.0
2018-Jul-11 21:01N 55°57' W 004°45'0 0.0
2018-Jul-11 20:30N 55°57' W 004°45'0 0.0
2018-Jul-11 20:00N 55°57' W 004°45'  

Dump ship's entire track history